sensor_id;sensor_type;location;lat;lon;timestamp;P1;durP1;ratioP1;P2;durP2;ratioP2
55800;SDS011;41730;51.960;20.158;2023-11-22T00:00:29;6.10;;;3.80;;
55800;SDS011;41730;51.960;20.158;2023-11-22T00:03:00;8.30;;;5.50;;
55800;SDS011;41730;51.960;20.158;2023-11-22T00:05:32;8.20;;;4.50;;
55800;SDS011;41730;51.960;20.158;2023-11-22T00:08:04;8.60;;;4.70;;
55800;SDS011;41730;51.960;20.158;2023-11-22T00:10:36;9.60;;;4.40;;
55800;SDS011;41730;51.960;20.158;2023-11-22T00:13:08;7.00;;;4.20;;
55800;SDS011;41730;51.960;20.158;2023-11-22T00:15:40;10.00;;;5.80;;
55800;SDS011;41730;51.960;20.158;2023-11-22T00:18:12;8.80;;;5.10;;
55800;SDS011;41730;51.960;20.158;2023-11-22T00:20:44;9.60;;;4.20;;
55800;SDS011;41730;51.960;20.158;2023-11-22T00:23:17;13.90;;;8.60;;
55800;SDS011;41730;51.960;20.158;2023-11-22T00:25:48;10.70;;;5.00;;
55800;SDS011;41730;51.960;20.158;2023-11-22T00:28:22;13.70;;;8.70;;
55800;SDS011;41730;51.960;20.158;2023-11-22T00:30:54;8.10;;;3.70;;
55800;SDS011;41730;51.960;20.158;2023-11-22T00:33:26;8.20;;;4.40;;
55800;SDS011;41730;51.960;20.158;2023-11-22T00:35:59;7.70;;;3.60;;
55800;SDS011;41730;51.960;20.158;2023-11-22T00:38:32;9.60;;;5.20;;
55800;SDS011;41730;51.960;20.158;2023-11-22T00:41:05;10.20;;;5.10;;
55800;SDS011;41730;51.960;20.158;2023-11-22T00:43:37;9.50;;;4.60;;
55800;SDS011;41730;51.960;20.158;2023-11-22T00:46:09;12.10;;;5.60;;
55800;SDS011;41730;51.960;20.158;2023-11-22T00:48:41;7.50;;;4.70;;
55800;SDS011;41730;51.960;20.158;2023-11-22T00:51:13;10.20;;;4.60;;
55800;SDS011;41730;51.960;20.158;2023-11-22T00:53:44;9.30;;;4.80;;
55800;SDS011;41730;51.960;20.158;2023-11-22T00:56:16;11.30;;;7.90;;
55800;SDS011;41730;51.960;20.158;2023-11-22T00:58:48;8.20;;;3.50;;
55800;SDS011;41730;51.960;20.158;2023-11-22T01:01:19;8.70;;;4.80;;
55800;SDS011;41730;51.960;20.158;2023-11-22T01:03:51;11.10;;;4.90;;
55800;SDS011;41730;51.960;20.158;2023-11-22T01:06:23;10.80;;;4.90;;
55800;SDS011;41730;51.960;20.158;2023-11-22T01:08:55;9.70;;;5.20;;
55800;SDS011;41730;51.960;20.158;2023-11-22T01:11:27;8.60;;;5.00;;
55800;SDS011;41730;51.960;20.158;2023-11-22T01:13:58;12.00;;;8.10;;
55800;SDS011;41730;51.960;20.158;2023-11-22T01:16:30;5.80;;;3.70;;
55800;SDS011;41730;51.960;20.158;2023-11-22T01:19:02;9.90;;;4.90;;
55800;SDS011;41730;51.960;20.158;2023-11-22T01:21:34;11.60;;;4.80;;
55800;SDS011;41730;51.960;20.158;2023-11-22T01:24:06;10.40;;;4.70;;
55800;SDS011;41730;51.960;20.158;2023-11-22T01:26:38;11.80;;;5.90;;
55800;SDS011;41730;51.960;20.158;2023-11-22T01:29:10;8.50;;;4.70;;
55800;SDS011;41730;51.960;20.158;2023-11-22T01:31:41;9.60;;;6.20;;
55800;SDS011;41730;51.960;20.158;2023-11-22T01:34:13;8.80;;;4.20;;
55800;SDS011;41730;51.960;20.158;2023-11-22T01:36:45;7.90;;;3.40;;
55800;SDS011;41730;51.960;20.158;2023-11-22T01:39:18;7.80;;;4.10;;
55800;SDS011;41730;51.960;20.158;2023-11-22T01:41:50;9.80;;;4.70;;
55800;SDS011;41730;51.960;20.158;2023-11-22T01:44:24;7.10;;;3.60;;
55800;SDS011;41730;51.960;20.158;2023-11-22T01:46:56;9.20;;;5.10;;
55800;SDS011;41730;51.960;20.158;2023-11-22T01:49:28;8.50;;;3.90;;
55800;SDS011;41730;51.960;20.158;2023-11-22T01:51:59;7.60;;;3.60;;
55800;SDS011;41730;51.960;20.158;2023-11-22T01:54:32;10.90;;;7.70;;
55800;SDS011;41730;51.960;20.158;2023-11-22T01:57:05;6.80;;;4.10;;
55800;SDS011;41730;51.960;20.158;2023-11-22T01:59:38;8.30;;;4.10;;
55800;SDS011;41730;51.960;20.158;2023-11-22T02:02:12;10.10;;;5.10;;
55800;SDS011;41730;51.960;20.158;2023-11-22T02:04:44;11.10;;;4.70;;
55800;SDS011;41730;51.960;20.158;2023-11-22T02:07:15;10.00;;;4.90;;
55800;SDS011;41730;51.960;20.158;2023-11-22T02:09:47;8.50;;;4.40;;
55800;SDS011;41730;51.960;20.158;2023-11-22T02:12:19;7.60;;;4.40;;
55800;SDS011;41730;51.960;20.158;2023-11-22T02:14:51;8.20;;;4.40;;
55800;SDS011;41730;51.960;20.158;2023-11-22T02:17:23;8.20;;;4.10;;
55800;SDS011;41730;51.960;20.158;2023-11-22T02:19:55;7.90;;;4.10;;
55800;SDS011;41730;51.960;20.158;2023-11-22T02:22:26;8.60;;;4.00;;
55800;SDS011;41730;51.960;20.158;2023-11-22T02:24:58;9.80;;;3.90;;
55800;SDS011;41730;51.960;20.158;2023-11-22T02:27:29;10.40;;;5.00;;
55800;SDS011;41730;51.960;20.158;2023-11-22T02:30:01;8.00;;;4.40;;
55800;SDS011;41730;51.960;20.158;2023-11-22T02:32:34;8.10;;;4.00;;
55800;SDS011;41730;51.960;20.158;2023-11-22T02:35:05;7.20;;;3.60;;
55800;SDS011;41730;51.960;20.158;2023-11-22T02:37:37;6.50;;;2.80;;
55800;SDS011;41730;51.960;20.158;2023-11-22T02:40:14;8.60;;;4.00;;
55800;SDS011;41730;51.960;20.158;2023-11-22T02:42:49;7.20;;;4.40;;
55800;SDS011;41730;51.960;20.158;2023-11-22T02:45:25;7.30;;;3.60;;
55800;SDS011;41730;51.960;20.158;2023-11-22T02:47:57;7.00;;;4.20;;
55800;SDS011;41730;51.960;20.158;2023-11-22T02:50:30;7.70;;;3.70;;
55800;SDS011;41730;51.960;20.158;2023-11-22T02:53:03;10.10;;;4.70;;
55800;SDS011;41730;51.960;20.158;2023-11-22T02:55:36;7.60;;;4.50;;
55800;SDS011;41730;51.960;20.158;2023-11-22T02:58:07;7.00;;;3.50;;
55800;SDS011;41730;51.960;20.158;2023-11-22T03:00:41;6.60;;;3.20;;
55800;SDS011;41730;51.960;20.158;2023-11-22T03:03:13;7.10;;;3.60;;
55800;SDS011;41730;51.960;20.158;2023-11-22T03:05:44;8.20;;;4.90;;
55800;SDS011;41730;51.960;20.158;2023-11-22T03:08:16;7.50;;;4.30;;
55800;SDS011;41730;51.960;20.158;2023-11-22T03:10:48;7.80;;;4.20;;
55800;SDS011;41730;51.960;20.158;2023-11-22T03:13:19;9.90;;;4.80;;
55800;SDS011;41730;51.960;20.158;2023-11-22T03:15:51;5.80;;;2.70;;
55800;SDS011;41730;51.960;20.158;2023-11-22T03:18:23;7.40;;;4.10;;
55800;SDS011;41730;51.960;20.158;2023-11-22T03:20:55;9.00;;;4.70;;
55800;SDS011;41730;51.960;20.158;2023-11-22T03:23:28;8.00;;;4.10;;
55800;SDS011;41730;51.960;20.158;2023-11-22T03:25:59;8.20;;;4.40;;
55800;SDS011;41730;51.960;20.158;2023-11-22T03:28:32;8.30;;;4.10;;
55800;SDS011;41730;51.960;20.158;2023-11-22T03:31:03;6.80;;;4.10;;
55800;SDS011;41730;51.960;20.158;2023-11-22T03:33:36;7.40;;;3.30;;
55800;SDS011;41730;51.960;20.158;2023-11-22T03:36:08;9.30;;;5.30;;
55800;SDS011;41730;51.960;20.158;2023-11-22T03:38:40;9.50;;;5.00;;
55800;SDS011;41730;51.960;20.158;2023-11-22T03:41:13;7.40;;;3.70;;
55800;SDS011;41730;51.960;20.158;2023-11-22T03:43:45;7.40;;;3.90;;
55800;SDS011;41730;51.960;20.158;2023-11-22T03:46:16;7.40;;;3.60;;
55800;SDS011;41730;51.960;20.158;2023-11-22T03:48:48;8.30;;;3.80;;
55800;SDS011;41730;51.960;20.158;2023-11-22T03:51:20;7.60;;;3.80;;
55800;SDS011;41730;51.960;20.158;2023-11-22T03:53:51;5.70;;;3.20;;
55800;SDS011;41730;51.960;20.158;2023-11-22T03:56:23;10.40;;;4.80;;
55800;SDS011;41730;51.960;20.158;2023-11-22T03:58:55;7.10;;;3.70;;
55800;SDS011;41730;51.960;20.158;2023-11-22T04:01:27;6.40;;;3.00;;
55800;SDS011;41730;51.960;20.158;2023-11-22T04:03:59;6.60;;;3.10;;
55800;SDS011;41730;51.960;20.158;2023-11-22T04:06:30;4.80;;;3.20;;
55800;SDS011;41730;51.960;20.158;2023-11-22T04:09:02;4.20;;;2.80;;
55800;SDS011;41730;51.960;20.158;2023-11-22T04:11:35;7.70;;;3.50;;
55800;SDS011;41730;51.960;20.158;2023-11-22T04:14:07;6.80;;;3.80;;
55800;SDS011;41730;51.960;20.158;2023-11-22T04:16:39;5.70;;;2.80;;
55800;SDS011;41730;51.960;20.158;2023-11-22T04:19:11;6.20;;;3.20;;
55800;SDS011;41730;51.960;20.158;2023-11-22T04:21:43;6.90;;;2.90;;
55800;SDS011;41730;51.960;20.158;2023-11-22T04:24:14;5.30;;;2.90;;
55800;SDS011;41730;51.960;20.158;2023-11-22T04:26:47;5.90;;;3.10;;
55800;SDS011;41730;51.960;20.158;2023-11-22T04:29:19;5.70;;;3.30;;
55800;SDS011;41730;51.960;20.158;2023-11-22T04:31:50;7.10;;;3.80;;
55800;SDS011;41730;51.960;20.158;2023-11-22T04:34:22;4.60;;;2.40;;
55800;SDS011;41730;51.960;20.158;2023-11-22T04:36:53;5.30;;;3.00;;
55800;SDS011;41730;51.960;20.158;2023-11-22T04:39:25;5.20;;;2.60;;
55800;SDS011;41730;51.960;20.158;2023-11-22T04:41:56;8.60;;;2.90;;
55800;SDS011;41730;51.960;20.158;2023-11-22T04:44:28;4.90;;;2.90;;
55800;SDS011;41730;51.960;20.158;2023-11-22T04:47:04;7.00;;;3.60;;
55800;SDS011;41730;51.960;20.158;2023-11-22T04:49:49;6.20;;;3.30;;
55800;SDS011;41730;51.960;20.158;2023-11-22T04:52:34;6.40;;;3.00;;
55800;SDS011;41730;51.960;20.158;2023-11-22T04:55:19;8.40;;;3.80;;
55800;SDS011;41730;51.960;20.158;2023-11-22T04:58:04;7.00;;;3.30;;
55800;SDS011;41730;51.960;20.158;2023-11-22T05:00:52;3.90;;;2.40;;
55800;SDS011;41730;51.960;20.158;2023-11-22T05:03:37;5.90;;;3.20;;
55800;SDS011;41730;51.960;20.158;2023-11-22T05:06:28;5.50;;;2.60;;
55800;SDS011;41730;51.960;20.158;2023-11-22T05:11:52;4.60;;;2.80;;
55800;SDS011;41730;51.960;20.158;2023-11-22T05:14:37;4.20;;;2.60;;
55800;SDS011;41730;51.960;20.158;2023-11-22T05:17:22;2.90;;;2.10;;
55800;SDS011;41730;51.960;20.158;2023-11-22T05:19:55;4.80;;;2.30;;
55800;SDS011;41730;51.960;20.158;2023-11-22T05:22:27;4.50;;;2.50;;
55800;SDS011;41730;51.960;20.158;2023-11-22T05:24:58;5.70;;;2.80;;
55800;SDS011;41730;51.960;20.158;2023-11-22T05:27:30;6.10;;;3.30;;
55800;SDS011;41730;51.960;20.158;2023-11-22T05:30:02;5.10;;;3.10;;
55800;SDS011;41730;51.960;20.158;2023-11-22T05:32:35;8.70;;;4.10;;
55800;SDS011;41730;51.960;20.158;2023-11-22T05:35:07;4.70;;;3.20;;
55800;SDS011;41730;51.960;20.158;2023-11-22T05:37:39;7.90;;;4.10;;
55800;SDS011;41730;51.960;20.158;2023-11-22T05:40:12;5.80;;;2.60;;
55800;SDS011;41730;51.960;20.158;2023-11-22T05:42:44;8.90;;;3.30;;
55800;SDS011;41730;51.960;20.158;2023-11-22T05:45:16;7.00;;;3.50;;
55800;SDS011;41730;51.960;20.158;2023-11-22T05:47:48;5.60;;;3.00;;
55800;SDS011;41730;51.960;20.158;2023-11-22T05:50:19;6.40;;;3.00;;
55800;SDS011;41730;51.960;20.158;2023-11-22T05:52:51;6.90;;;3.60;;
55800;SDS011;41730;51.960;20.158;2023-11-22T05:55:23;8.60;;;4.20;;
55800;SDS011;41730;51.960;20.158;2023-11-22T05:57:56;5.30;;;3.40;;
55800;SDS011;41730;51.960;20.158;2023-11-22T06:00:27;9.70;;;4.50;;
55800;SDS011;41730;51.960;20.158;2023-11-22T06:02:59;6.40;;;3.20;;
55800;SDS011;41730;51.960;20.158;2023-11-22T06:05:30;7.40;;;3.60;;
55800;SDS011;41730;51.960;20.158;2023-11-22T06:08:03;8.50;;;3.30;;
55800;SDS011;41730;51.960;20.158;2023-11-22T06:10:35;10.90;;;4.20;;
55800;SDS011;41730;51.960;20.158;2023-11-22T06:13:10;9.40;;;4.10;;
55800;SDS011;41730;51.960;20.158;2023-11-22T06:15:42;9.20;;;4.40;;
55800;SDS011;41730;51.960;20.158;2023-11-22T06:18:13;12.90;;;5.60;;
55800;SDS011;41730;51.960;20.158;2023-11-22T06:20:47;11.50;;;5.60;;
55800;SDS011;41730;51.960;20.158;2023-11-22T06:23:19;13.80;;;5.60;;
55800;SDS011;41730;51.960;20.158;2023-11-22T06:25:50;11.00;;;5.00;;
55800;SDS011;41730;51.960;20.158;2023-11-22T06:28:22;12.60;;;6.00;;
55800;SDS011;41730;51.960;20.158;2023-11-22T06:30:54;12.30;;;5.00;;
55800;SDS011;41730;51.960;20.158;2023-11-22T06:33:26;12.30;;;5.00;;
55800;SDS011;41730;51.960;20.158;2023-11-22T06:35:59;9.40;;;4.90;;
55800;SDS011;41730;51.960;20.158;2023-11-22T06:38:31;8.60;;;3.70;;
55800;SDS011;41730;51.960;20.158;2023-11-22T06:41:04;12.20;;;5.20;;
55800;SDS011;41730;51.960;20.158;2023-11-22T06:43:36;9.10;;;4.80;;
55800;SDS011;41730;51.960;20.158;2023-11-22T06:46:09;7.80;;;4.40;;
55800;SDS011;41730;51.960;20.158;2023-11-22T06:48:41;6.80;;;3.50;;
55800;SDS011;41730;51.960;20.158;2023-11-22T06:51:17;9.00;;;4.40;;
55800;SDS011;41730;51.960;20.158;2023-11-22T06:53:49;9.00;;;4.00;;
55800;SDS011;41730;51.960;20.158;2023-11-22T06:56:25;10.50;;;6.00;;
55800;SDS011;41730;51.960;20.158;2023-11-22T06:58:57;10.60;;;5.20;;
55800;SDS011;41730;51.960;20.158;2023-11-22T07:01:29;13.50;;;6.60;;
55800;SDS011;41730;51.960;20.158;2023-11-22T07:04:03;12.80;;;5.80;;
55800;SDS011;41730;51.960;20.158;2023-11-22T07:06:35;8.60;;;4.00;;
55800;SDS011;41730;51.960;20.158;2023-11-22T07:09:07;7.80;;;4.60;;
55800;SDS011;41730;51.960;20.158;2023-11-22T07:11:40;11.60;;;4.80;;
55800;SDS011;41730;51.960;20.158;2023-11-22T07:14:12;9.70;;;5.00;;
55800;SDS011;41730;51.960;20.158;2023-11-22T07:16:45;9.60;;;4.40;;
55800;SDS011;41730;51.960;20.158;2023-11-22T07:19:18;9.80;;;5.20;;
55800;SDS011;41730;51.960;20.158;2023-11-22T07:21:49;13.10;;;7.30;;
55800;SDS011;41730;51.960;20.158;2023-11-22T07:24:22;8.30;;;3.90;;
55800;SDS011;41730;51.960;20.158;2023-11-22T07:26:54;11.50;;;4.90;;
55800;SDS011;41730;51.960;20.158;2023-11-22T07:29:26;11.40;;;6.40;;
55800;SDS011;41730;51.960;20.158;2023-11-22T07:31:58;12.10;;;6.00;;
55800;SDS011;41730;51.960;20.158;2023-11-22T07:34:31;10.40;;;6.90;;
55800;SDS011;41730;51.960;20.158;2023-11-22T07:37:03;9.50;;;6.80;;
55800;SDS011;41730;51.960;20.158;2023-11-22T07:39:36;10.90;;;5.20;;
55800;SDS011;41730;51.960;20.158;2023-11-22T07:42:08;11.00;;;5.80;;
55800;SDS011;41730;51.960;20.158;2023-11-22T07:44:40;9.70;;;5.70;;
55800;SDS011;41730;51.960;20.158;2023-11-22T07:47:11;12.70;;;6.90;;
55800;SDS011;41730;51.960;20.158;2023-11-22T07:49:44;9.90;;;6.20;;
55800;SDS011;41730;51.960;20.158;2023-11-22T07:52:16;11.00;;;6.20;;
55800;SDS011;41730;51.960;20.158;2023-11-22T07:54:48;11.90;;;6.50;;
55800;SDS011;41730;51.960;20.158;2023-11-22T07:57:20;10.10;;;6.00;;
55800;SDS011;41730;51.960;20.158;2023-11-22T07:59:51;8.90;;;6.30;;
55800;SDS011;41730;51.960;20.158;2023-11-22T08:02:24;10.60;;;5.50;;
55800;SDS011;41730;51.960;20.158;2023-11-22T08:04:57;10.00;;;5.30;;
55800;SDS011;41730;51.960;20.158;2023-11-22T08:07:30;9.90;;;5.70;;
55800;SDS011;41730;51.960;20.158;2023-11-22T08:10:04;10.70;;;6.20;;
55800;SDS011;41730;51.960;20.158;2023-11-22T08:12:46;7.80;;;5.50;;
55800;SDS011;41730;51.960;20.158;2023-11-22T08:15:21;8.60;;;6.00;;
55800;SDS011;41730;51.960;20.158;2023-11-22T08:17:55;11.20;;;6.20;;
55800;SDS011;41730;51.960;20.158;2023-11-22T08:20:47;10.00;;;5.50;;
55800;SDS011;41730;51.960;20.158;2023-11-22T08:23:46;11.20;;;6.10;;
55800;SDS011;41730;51.960;20.158;2023-11-22T08:26:19;11.80;;;7.40;;
55800;SDS011;41730;51.960;20.158;2023-11-22T08:28:56;12.10;;;8.00;;
55800;SDS011;41730;51.960;20.158;2023-11-22T08:31:36;12.70;;;6.20;;
55800;SDS011;41730;51.960;20.158;2023-11-22T08:34:13;14.10;;;8.60;;
55800;SDS011;41730;51.960;20.158;2023-11-22T08:36:46;11.90;;;7.50;;
55800;SDS011;41730;51.960;20.158;2023-11-22T08:39:22;10.70;;;5.80;;
55800;SDS011;41730;51.960;20.158;2023-11-22T08:42:01;11.00;;;7.90;;
55800;SDS011;41730;51.960;20.158;2023-11-22T08:44:44;12.20;;;7.80;;
55800;SDS011;41730;51.960;20.158;2023-11-22T08:47:20;11.20;;;5.80;;
55800;SDS011;41730;51.960;20.158;2023-11-22T08:49:58;12.20;;;7.60;;
55800;SDS011;41730;51.960;20.158;2023-11-22T08:52:32;15.20;;;8.80;;
55800;SDS011;41730;51.960;20.158;2023-11-22T08:55:05;11.50;;;6.30;;
55800;SDS011;41730;51.960;20.158;2023-11-22T08:57:44;14.40;;;6.40;;
55800;SDS011;41730;51.960;20.158;2023-11-22T09:00:20;11.30;;;6.40;;
55800;SDS011;41730;51.960;20.158;2023-11-22T09:02:56;11.10;;;6.60;;
55800;SDS011;41730;51.960;20.158;2023-11-22T09:05:28;7.60;;;3.90;;
55800;SDS011;41730;51.960;20.158;2023-11-22T09:08:05;9.80;;;5.20;;
55800;SDS011;41730;51.960;20.158;2023-11-22T09:10:58;9.80;;;5.10;;
55800;SDS011;41730;51.960;20.158;2023-11-22T09:13:34;9.90;;;6.80;;
55800;SDS011;41730;51.960;20.158;2023-11-22T09:16:28;8.50;;;4.30;;
55800;SDS011;41730;51.960;20.158;2023-11-22T09:19:09;7.90;;;4.60;;
55800;SDS011;41730;51.960;20.158;2023-11-22T09:21:41;9.00;;;4.50;;
55800;SDS011;41730;51.960;20.158;2023-11-22T09:24:13;9.10;;;5.10;;
55800;SDS011;41730;51.960;20.158;2023-11-22T09:26:45;10.00;;;4.70;;
55800;SDS011;41730;51.960;20.158;2023-11-22T09:29:18;9.40;;;6.00;;
55800;SDS011;41730;51.960;20.158;2023-11-22T09:31:53;8.10;;;4.20;;
55800;SDS011;41730;51.960;20.158;2023-11-22T09:34:26;7.80;;;4.00;;
55800;SDS011;41730;51.960;20.158;2023-11-22T09:37:04;7.70;;;5.00;;
55800;SDS011;41730;51.960;20.158;2023-11-22T09:39:36;11.70;;;5.10;;
55800;SDS011;41730;51.960;20.158;2023-11-22T09:42:08;9.20;;;4.00;;
55800;SDS011;41730;51.960;20.158;2023-11-22T09:44:41;8.50;;;5.10;;
55800;SDS011;41730;51.960;20.158;2023-11-22T09:47:13;10.50;;;6.50;;
55800;SDS011;41730;51.960;20.158;2023-11-22T09:49:47;7.90;;;4.60;;
55800;SDS011;41730;51.960;20.158;2023-11-22T09:52:26;8.10;;;4.20;;
55800;SDS011;41730;51.960;20.158;2023-11-22T09:55:02;9.50;;;4.90;;
55800;SDS011;41730;51.960;20.158;2023-11-22T09:57:35;8.10;;;4.40;;
55800;SDS011;41730;51.960;20.158;2023-11-22T10:00:11;8.40;;;6.20;;
55800;SDS011;41730;51.960;20.158;2023-11-22T10:02:47;9.00;;;4.80;;
55800;SDS011;41730;51.960;20.158;2023-11-22T10:05:21;10.70;;;4.80;;
55800;SDS011;41730;51.960;20.158;2023-11-22T10:07:53;9.80;;;6.00;;
55800;SDS011;41730;51.960;20.158;2023-11-22T10:10:25;9.10;;;4.60;;
55800;SDS011;41730;51.960;20.158;2023-11-22T10:13:01;7.80;;;4.30;;
55800;SDS011;41730;51.960;20.158;2023-11-22T10:15:34;8.30;;;4.50;;
55800;SDS011;41730;51.960;20.158;2023-11-22T10:18:06;8.40;;;4.70;;
55800;SDS011;41730;51.960;20.158;2023-11-22T10:20:39;10.40;;;5.00;;
55800;SDS011;41730;51.960;20.158;2023-11-22T10:23:17;9.00;;;5.20;;
55800;SDS011;41730;51.960;20.158;2023-11-22T10:25:53;11.70;;;5.20;;
55800;SDS011;41730;51.960;20.158;2023-11-22T10:28:25;7.70;;;4.40;;
55800;SDS011;41730;51.960;20.158;2023-11-22T10:30:58;13.30;;;7.50;;
55800;SDS011;41730;51.960;20.158;2023-11-22T10:33:40;9.70;;;5.10;;
55800;SDS011;41730;51.960;20.158;2023-11-22T10:36:12;10.10;;;5.50;;
55800;SDS011;41730;51.960;20.158;2023-11-22T10:38:48;10.30;;;6.80;;
55800;SDS011;41730;51.960;20.158;2023-11-22T10:41:21;6.90;;;4.00;;
55800;SDS011;41730;51.960;20.158;2023-11-22T10:43:52;8.10;;;4.80;;
55800;SDS011;41730;51.960;20.158;2023-11-22T10:46:26;9.70;;;5.40;;
55800;SDS011;41730;51.960;20.158;2023-11-22T10:48:59;9.10;;;4.70;;
55800;SDS011;41730;51.960;20.158;2023-11-22T10:51:33;10.10;;;6.60;;
55800;SDS011;41730;51.960;20.158;2023-11-22T10:54:09;7.90;;;4.50;;
55800;SDS011;41730;51.960;20.158;2023-11-22T10:56:42;9.40;;;5.60;;
55800;SDS011;41730;51.960;20.158;2023-11-22T10:59:22;9.80;;;6.40;;
55800;SDS011;41730;51.960;20.158;2023-11-22T11:01:58;9.60;;;5.10;;
55800;SDS011;41730;51.960;20.158;2023-11-22T11:04:38;12.80;;;5.40;;
55800;SDS011;41730;51.960;20.158;2023-11-22T11:07:17;8.70;;;4.80;;
55800;SDS011;41730;51.960;20.158;2023-11-22T11:09:53;10.10;;;5.80;;
55800;SDS011;41730;51.960;20.158;2023-11-22T11:12:43;11.30;;;4.60;;
55800;SDS011;41730;51.960;20.158;2023-11-22T11:15:16;10.40;;;5.40;;
55800;SDS011;41730;51.960;20.158;2023-11-22T11:17:49;8.70;;;5.00;;
55800;SDS011;41730;51.960;20.158;2023-11-22T11:20:23;8.50;;;6.60;;
55800;SDS011;41730;51.960;20.158;2023-11-22T11:22:55;10.10;;;6.80;;
55800;SDS011;41730;51.960;20.158;2023-11-22T11:25:26;11.00;;;5.40;;
55800;SDS011;41730;51.960;20.158;2023-11-22T11:27:58;9.40;;;5.30;;
55800;SDS011;41730;51.960;20.158;2023-11-22T11:30:42;10.00;;;6.80;;
55800;SDS011;41730;51.960;20.158;2023-11-22T11:33:17;9.90;;;4.90;;
55800;SDS011;41730;51.960;20.158;2023-11-22T11:35:57;10.90;;;5.70;;
55800;SDS011;41730;51.960;20.158;2023-11-22T11:38:32;9.90;;;6.30;;
55800;SDS011;41730;51.960;20.158;2023-11-22T11:41:09;9.30;;;6.60;;
55800;SDS011;41730;51.960;20.158;2023-11-22T11:43:42;7.70;;;4.40;;
55800;SDS011;41730;51.960;20.158;2023-11-22T11:46:15;13.00;;;6.40;;
55800;SDS011;41730;51.960;20.158;2023-11-22T11:48:49;10.50;;;7.10;;
55800;SDS011;41730;51.960;20.158;2023-11-22T11:51:24;11.00;;;5.50;;
55800;SDS011;41730;51.960;20.158;2023-11-22T11:53:57;8.60;;;5.20;;
55800;SDS011;41730;51.960;20.158;2023-11-22T11:56:29;10.10;;;6.60;;
55800;SDS011;41730;51.960;20.158;2023-11-22T11:59:02;9.60;;;7.10;;
55800;SDS011;41730;51.960;20.158;2023-11-22T12:01:34;11.00;;;5.10;;
55800;SDS011;41730;51.960;20.158;2023-11-22T12:04:06;17.20;;;9.30;;
55800;SDS011;41730;51.960;20.158;2023-11-22T12:06:37;10.70;;;6.30;;
55800;SDS011;41730;51.960;20.158;2023-11-22T12:09:10;10.30;;;6.80;;
55800;SDS011;41730;51.960;20.158;2023-11-22T12:11:41;10.00;;;5.70;;
55800;SDS011;41730;51.960;20.158;2023-11-22T12:14:15;10.60;;;6.80;;
55800;SDS011;41730;51.960;20.158;2023-11-22T12:16:47;10.10;;;7.00;;
55800;SDS011;41730;51.960;20.158;2023-11-22T12:19:23;10.90;;;5.90;;
55800;SDS011;41730;51.960;20.158;2023-11-22T12:21:55;8.90;;;6.40;;
55800;SDS011;41730;51.960;20.158;2023-11-22T12:24:27;8.90;;;5.00;;
55800;SDS011;41730;51.960;20.158;2023-11-22T12:26:58;19.10;;;10.50;;
55800;SDS011;41730;51.960;20.158;2023-11-22T12:29:32;14.40;;;7.70;;
55800;SDS011;41730;51.960;20.158;2023-11-22T12:32:07;11.90;;;5.70;;
55800;SDS011;41730;51.960;20.158;2023-11-22T12:34:39;9.40;;;5.80;;
55800;SDS011;41730;51.960;20.158;2023-11-22T12:37:12;10.00;;;6.80;;
55800;SDS011;41730;51.960;20.158;2023-11-22T12:39:44;14.30;;;7.30;;
55800;SDS011;41730;51.960;20.158;2023-11-22T12:42:16;10.30;;;6.70;;
55800;SDS011;41730;51.960;20.158;2023-11-22T12:44:49;8.80;;;5.20;;
55800;SDS011;41730;51.960;20.158;2023-11-22T12:47:34;11.50;;;7.10;;
55800;SDS011;41730;51.960;20.158;2023-11-22T12:50:07;11.30;;;5.50;;
55800;SDS011;41730;51.960;20.158;2023-11-22T12:53:10;12.00;;;6.10;;
55800;SDS011;41730;51.960;20.158;2023-11-22T12:55:43;9.50;;;5.20;;
55800;SDS011;41730;51.960;20.158;2023-11-22T12:58:18;7.80;;;6.50;;
55800;SDS011;41730;51.960;20.158;2023-11-22T13:00:51;10.10;;;6.70;;
55800;SDS011;41730;51.960;20.158;2023-11-22T13:03:27;7.90;;;4.40;;
55800;SDS011;41730;51.960;20.158;2023-11-22T13:06:00;9.70;;;6.20;;
55800;SDS011;41730;51.960;20.158;2023-11-22T13:08:32;7.60;;;5.10;;
55800;SDS011;41730;51.960;20.158;2023-11-22T13:11:04;9.20;;;4.70;;
55800;SDS011;41730;51.960;20.158;2023-11-22T13:13:36;8.90;;;4.60;;
55800;SDS011;41730;51.960;20.158;2023-11-22T13:16:07;8.30;;;4.60;;
55800;SDS011;41730;51.960;20.158;2023-11-22T13:18:39;9.10;;;5.60;;
55800;SDS011;41730;51.960;20.158;2023-11-22T13:21:11;8.70;;;4.80;;
55800;SDS011;41730;51.960;20.158;2023-11-22T13:23:43;8.10;;;4.80;;
55800;SDS011;41730;51.960;20.158;2023-11-22T13:26:14;8.50;;;5.20;;
55800;SDS011;41730;51.960;20.158;2023-11-22T13:28:47;12.10;;;6.20;;
55800;SDS011;41730;51.960;20.158;2023-11-22T13:31:20;14.90;;;8.30;;
55800;SDS011;41730;51.960;20.158;2023-11-22T13:33:52;15.20;;;8.40;;
55800;SDS011;41730;51.960;20.158;2023-11-22T13:36:25;15.60;;;7.80;;
55800;SDS011;41730;51.960;20.158;2023-11-22T13:38:57;15.30;;;8.30;;
55800;SDS011;41730;51.960;20.158;2023-11-22T13:41:28;19.40;;;9.30;;
55800;SDS011;41730;51.960;20.158;2023-11-22T13:44:00;21.40;;;11.50;;
55800;SDS011;41730;51.960;20.158;2023-11-22T13:46:32;13.50;;;7.30;;
55800;SDS011;41730;51.960;20.158;2023-11-22T13:49:04;12.50;;;7.10;;
55800;SDS011;41730;51.960;20.158;2023-11-22T13:51:36;11.80;;;6.30;;
55800;SDS011;41730;51.960;20.158;2023-11-22T13:54:07;13.70;;;7.90;;
55800;SDS011;41730;51.960;20.158;2023-11-22T13:56:42;18.80;;;9.60;;
55800;SDS011;41730;51.960;20.158;2023-11-22T13:59:14;18.10;;;11.20;;
55800;SDS011;41730;51.960;20.158;2023-11-22T14:01:46;17.80;;;11.10;;
55800;SDS011;41730;51.960;20.158;2023-11-22T14:04:20;40.50;;;16.40;;
55800;SDS011;41730;51.960;20.158;2023-11-22T14:06:52;49.80;;;19.80;;
55800;SDS011;41730;51.960;20.158;2023-11-22T14:09:24;62.40;;;22.50;;
55800;SDS011;41730;51.960;20.158;2023-11-22T14:11:56;30.70;;;15.80;;
55800;SDS011;41730;51.960;20.158;2023-11-22T14:14:27;27.50;;;12.80;;
55800;SDS011;41730;51.960;20.158;2023-11-22T14:16:59;29.80;;;11.50;;
55800;SDS011;41730;51.960;20.158;2023-11-22T14:19:30;19.70;;;9.90;;
55800;SDS011;41730;51.960;20.158;2023-11-22T14:22:08;22.60;;;11.00;;
55800;SDS011;41730;51.960;20.158;2023-11-22T14:24:41;22.90;;;13.50;;
55800;SDS011;41730;51.960;20.158;2023-11-22T14:27:15;21.50;;;9.50;;
55800;SDS011;41730;51.960;20.158;2023-11-22T14:29:47;21.20;;;12.20;;
55800;SDS011;41730;51.960;20.158;2023-11-22T14:32:19;23.80;;;11.50;;
55800;SDS011;41730;51.960;20.158;2023-11-22T14:34:51;20.70;;;11.10;;
55800;SDS011;41730;51.960;20.158;2023-11-22T14:37:23;41.90;;;23.00;;
55800;SDS011;41730;51.960;20.158;2023-11-22T14:39:55;27.40;;;12.30;;
55800;SDS011;41730;51.960;20.158;2023-11-22T14:42:27;74.90;;;38.90;;
55800;SDS011;41730;51.960;20.158;2023-11-22T14:44:59;42.60;;;23.10;;
55800;SDS011;41730;51.960;20.158;2023-11-22T14:47:31;47.20;;;18.20;;
55800;SDS011;41730;51.960;20.158;2023-11-22T14:50:06;42.00;;;17.10;;
55800;SDS011;41730;51.960;20.158;2023-11-22T14:52:43;34.20;;;15.20;;
55800;SDS011;41730;51.960;20.158;2023-11-22T14:55:16;34.90;;;15.40;;
55800;SDS011;41730;51.960;20.158;2023-11-22T14:57:49;46.00;;;19.50;;
55800;SDS011;41730;51.960;20.158;2023-11-22T15:00:22;61.20;;;34.00;;
55800;SDS011;41730;51.960;20.158;2023-11-22T15:02:54;53.60;;;21.60;;
55800;SDS011;41730;51.960;20.158;2023-11-22T15:05:26;107.50;;;35.20;;
55800;SDS011;41730;51.960;20.158;2023-11-22T15:07:57;67.30;;;26.70;;